Norfolk, Virginia
Traffic Map
Current Weather Conditions
Norfolk, Virginia
Clear Haze
Clear
56°
Feels Like: 56°
Wind Chill: 56° Ceiling: Unl
Heat Index: 56° Visibility: 6mi
Dew Point: 55° Wind: 0mph
Humidity: 97% Direction: ° ()
Pressure: 30.26in Gusts: 0mph
Raw Report DataKORF 210851Z 00000KT 6SM BR CLR 13/13 A3026 RMK AO2 SLP245 T01330128 55002
Traffic Incident Summary
Active as of:
Severity:
Category:
InformationThere was an issue retrieving the traffic information for this location. Please try a different location or try again shortly.
Advertisements